الصفحة الرئيسية
METAR-TAF:

METAR-TAF

مطار :

بكين, جمهورية الصين الشعبية

مطار بكين العاصمة الدولي

دائرة عرض: 39-56N, خط طول: 116-17E, ارتفاع: 55 متر

مراقبة الطقس الحالي

تاريخ ووقت الإصدار 15 دقيقة قبل الساعة 07:00UTC
ريح 14 عقدة من الغرب/الشمال الغربي
درجة الحرارة 9°درجة مئوية
الرطوبة 13%
ضغط 1020 hPa
الرؤية 10 كم أو أكثر
الغيوم لا تقل 1500 م ولا وجود لمزنة ركامية السحاب الأسود

METAR: ZBAA 190700Z 30007MPS CAVOK 09/M18 Q1020 NOSIG

زمن: 15:15 (07:15 UTC)

توقعات

تاريخ ووقت الإصدار 2ساعات و 5 دقيقة قبل الساعة 05:10UTC
التوقعات صالحة من19 الساعة 06 UTC إلى 20 الساعة 06 UTC
ريح 19 عقدة من الشمال الغربي تتزايد حتى 29 عقدة
الرؤية 10 كم أو أكثر
الغيوم لا تقل 1500 م ولا وجود لمزنة ركامية السحاب الأسود
أصبح
من 19 الساعة 07 UTC إلى 19 الساعة 08 UTC
ريح 8 عقدة من الشمال

TAF: ZBAA 190510Z 1906/2006 32010G15MPS CAVOK TX09/1907Z TNM05/21Z BECMG 1907/1908 35004MPS

أرصاد الطقس والتوقعات من أكثر من 4000 مطار (تقارير الطقس للمطار METAR والتنبؤ بالطقس بالمطارTAF).

المحطات المتاحة هي النقط الصفراء والحمراء على الخريطة.

حرك المؤشر فوق النقطة لمعرفة اسم المحطة.

ثم انقر لمعرفة أرصاد وتوقعات الطقس.

لتغيير الخارطة: اضغط على الأزرار الخضراء مع رمز الصليب الأسود للتكبير. على الزر الأخضر مع شرطة للتصغير، أو على الأسهم الخضراء للخرائط المجاورة.


METAR-TAF: